Time;durP1;ratioP1;P1;durP2;ratioP2;P2;SDS_P1;SDS_P2;PMS_P1;PMS_P2;Temp;Humidity;BMP_temperature;BMP_pressure;BME280_temperature;BME280_humidity;BME280_pressure;Samples;Min_cycle;Max_cycle;Signal;HPM_P1;HPM_P2
2021/08/20 00:01:55;;;;;;;8.02;6.72;;;17.00;99.90;;;;;;5012429;28;20429;-79
2021/08/20 00:04:22;;;;;;;6.35;5.65;;;17.00;99.90;;;;;;4985181;28;20060;-78
2021/08/20 00:06:49;;;;;;;11.73;5.75;;;17.00;99.90;;;;;;4992860;28;20480;-79
2021/08/20 00:09:16;;;;;;;8.45;5.95;;;17.10;99.90;;;;;;4993233;28;20054;-79
2021/08/20 00:11:43;;;;;;;10.45;6.03;;;17.10;99.90;;;;;;4996830;28;20216;-78
2021/08/20 00:14:16;;;;;;;8.35;5.80;;;17.10;99.90;;;;;;4992818;28;20054;-78
2021/08/20 00:20:07;;;;;;;9.15;6.75;;;17.20;99.90;;;;;;5008983;28;20096;-78
2021/08/20 00:22:42;;;;;;;7.53;6.00;;;17.10;99.90;;;;;;4953901;29;20138;-79
2021/08/20 00:34:53;;;;;;;7.57;6.47;;;17.10;99.90;;;;;;5012345;28;20061;-80
2021/08/20 00:37:33;;;;;;;8.57;6.75;;;17.10;99.90;;;;;;5012893;28;20077;-79
2021/08/20 00:40:08;;;;;;;9.57;6.93;;;17.10;99.90;;;;;;4994503;28;20306;-78
2021/08/20 00:42:41;;;;;;;10.75;7.68;;;17.10;99.90;;;;;;4992996;28;20054;-78
2021/08/20 00:45:09;;;;;;;9.30;7.53;;;17.00;99.90;;;;;;4992034;28;20046;-77
2021/08/20 00:47:46;;;;;;;8.82;7.30;;;17.00;99.90;;;;;;4992383;28;20055;-77
2021/08/20 00:50:18;;;;;;;11.80;7.18;;;17.00;99.90;;;;;;4992969;28;20061;-78
2021/08/20 00:55:28;;;;;;;9.85;6.72;;;16.90;99.90;;;;;;4990233;28;20081;-78
2021/08/20 00:57:55;;;;;;;8.55;6.90;;;16.90;99.90;;;;;;4992000;28;20046;-79
2021/08/20 01:00:22;;;;;;;9.57;6.85;;;16.90;99.90;;;;;;4992894;28;20418;-79
2021/08/20 01:02:53;;;;;;;9.02;6.95;;;16.90;99.90;;;;;;4992457;28;20134;-78
2021/08/20 01:05:24;;;;;;;12.35;7.40;;;16.90;99.90;;;;;;4994899;28;20049;-79
2021/08/20 01:07:54;;;;;;;9.18;7.25;;;16.70;99.90;;;;;;5011722;28;20517;-78
2021/08/20 01:10:21;;;;;;;12.73;7.70;;;16.90;99.90;;;;;;5014873;28;20100;-79
2021/08/20 01:12:49;;;;;;;8.82;6.82;;;16.90;99.90;;;;;;5015840;28;20477;-80
2021/08/20 01:15:17;;;;;;;9.73;6.68;;;16.90;99.90;;;;;;5015478;28;20046;-79
2021/08/20 01:17:47;;;;;;;9.77;6.95;;;16.90;99.90;;;;;;5015790;28;20058;-79
2021/08/20 01:20:17;;;;;;;9.30;7.30;;;16.90;99.90;;;;;;5000479;28;20054;-78
2021/08/20 01:28:49;;;;;;;11.00;7.80;;;16.90;99.90;;;;;;5026613;23;20038;-82
2021/08/20 01:31:18;;;;;;;11.93;7.45;;;16.90;99.90;;;;;;5025117;28;20073;-85
2021/08/20 01:33:45;;;;;;;10.23;8.00;;;16.90;99.90;;;;;;5024687;28;20061;-82
2021/08/20 01:36:13;;;;;;;9.82;7.38;;;16.90;99.90;;;;;;5025213;28;20477;-82
2021/08/20 01:38:51;;;;;;;8.80;7.43;;;16.90;99.90;;;;;;5026789;28;20074;-83
2021/08/20 01:41:35;;;;;;;10.73;8.25;;;17.00;99.90;;;;;;5025419;28;20038;-83
2021/08/20 01:44:02;;;;;;;10.57;8.00;;;17.00;99.90;;;;;;5026326;28;20054;-84
2021/08/20 01:46:49;;;;;;;11.88;8.10;;;16.90;99.90;;;;;;5026493;28;20061;-84
2021/08/20 01:49:21;;;;;;;10.60;7.75;;;16.90;99.90;;;;;;5027807;28;20046;-83
2021/08/20 01:51:48;;;;;;;10.23;7.78;;;17.00;99.90;;;;;;5026030;28;20049;-82
2021/08/20 01:54:15;;;;;;;12.43;8.73;;;17.00;99.90;;;;;;5024794;28;20078;-84
2021/08/20 01:56:44;;;;;;;10.65;8.38;;;17.00;99.90;;;;;;5023596;28;20617;-84
2021/08/20 01:59:10;;;;;;;13.35;8.32;;;17.00;99.90;;;;;;5024830;28;20088;-82
2021/08/20 02:01:37;;;;;;;11.05;8.40;;;17.00;99.90;;;;;;5026046;28;20105;-85
2021/08/20 02:04:05;;;;;;;11.30;8.43;;;16.90;99.90;;;;;;5009412;28;20081;-81
2021/08/20 02:06:33;;;;;;;11.07;8.30;;;16.90;99.90;;;;;;5005334;28;20141;-84
2021/08/20 02:09:00;;;;;;;12.15;8.32;;;16.90;99.90;;;;;;5004456;28;20050;-82
2021/08/20 02:11:27;;;;;;;14.30;8.60;;;16.90;99.90;;;;;;5005434;28;20065;-84
2021/08/20 02:13:55;;;;;;;12.13;8.50;;;16.80;99.90;;;;;;5004910;28;20088;-82
2021/08/20 02:16:22;;;;;;;9.52;8.30;;;16.90;99.90;;;;;;5006446;28;20074;-81
2021/08/20 02:18:49;;;;;;;11.63;9.13;;;16.80;99.90;;;;;;5008751;28;20082;-85
2021/08/20 02:21:16;;;;;;;12.15;8.80;;;16.80;99.90;;;;;;5005232;28;20085;-84
2021/08/20 02:23:43;;;;;;;14.10;9.23;;;16.80;99.90;;;;;;5023067;28;20054;-84
2021/08/20 02:26:10;;;;;;;10.43;9.10;;;16.80;99.90;;;;;;5025760;28;20081;-82
2021/08/20 02:28:37;;;;;;;22.05;9.30;;;16.70;99.90;;;;;;5025033;28;20084;-82
2021/08/20 02:31:05;;;;;;;10.60;8.90;;;16.70;99.90;;;;;;5024866;28;20192;-81
2021/08/20 02:33:33;;;;;;;12.15;9.10;;;16.70;99.90;;;;;;5002331;28;20082;-82
2021/08/20 02:36:02;;;;;;;11.77;9.40;;;16.70;99.90;;;;;;5002368;28;20054;-82
2021/08/20 02:38:29;;;;;;;12.15;9.30;;;16.70;99.90;;;;;;5002500;28;20085;-82
2021/08/20 02:40:56;;;;;;;12.40;9.50;;;16.70;99.90;;;;;;5003366;28;20054;-80
2021/08/20 02:43:23;;;;;;;11.57;8.57;;;16.60;99.90;;;;;;5003879;28;20585;-81
2021/08/20 02:45:50;;;;;;;12.18;9.65;;;16.60;99.90;;;;;;5012394;28;20126;-80
2021/08/20 02:48:18;;;;;;;13.88;9.52;;;16.60;99.90;;;;;;5023023;28;20090;-81
2021/08/20 02:50:45;;;;;;;13.38;9.65;;;16.60;99.90;;;;;;5024192;28;20077;-81
2021/08/20 02:53:12;;;;;;;13.90;9.70;;;16.50;99.90;;;;;;5022150;28;20136;-81
2021/08/20 02:55:39;;;;;;;10.65;9.27;;;16.50;99.90;;;;;;5024156;28;20161;-85
2021/08/20 02:58:07;;;;;;;13.27;9.55;;;16.40;99.90;;;;;;5025195;28;20128;-83
2021/08/20 03:00:34;;;;;;;13.45;10.30;;;16.40;99.90;;;;;;5004089;28;20141;-82
2021/08/20 03:03:01;;;;;;;13.45;10.15;;;16.40;99.90;;;;;;5002873;28;20050;-82
2021/08/20 03:05:29;;;;;;;12.40;9.70;;;16.30;99.90;;;;;;5000428;28;20114;-82
2021/08/20 03:07:56;;;;;;;16.30;10.75;;;16.30;99.90;;;;;;5006546;28;20142;-81
2021/08/20 03:10:23;;;;;;;14.20;11.02;;;16.30;99.90;;;;;;5003721;28;20082;-84
2021/08/20 03:12:50;;;;;;;15.05;10.63;;;16.30;99.90;;;;;;5011458;28;20052;-84
2021/08/20 03:15:16;;;;;;;12.60;10.20;;;16.40;99.90;;;;;;5021874;28;20068;-82
2021/08/20 03:17:43;;;;;;;13.75;10.18;;;16.30;99.90;;;;;;5022029;28;20562;-80
2021/08/20 03:20:11;;;;;;;13.88;10.57;;;16.30;99.90;;;;;;5021679;28;20223;-81
2021/08/20 03:22:39;;;;;;;17.10;11.13;;;16.30;99.90;;;;;;5009847;28;20058;-81
2021/08/20 03:25:07;;;;;;;14.18;10.80;;;16.30;99.90;;;;;;5000527;28;20104;-80
2021/08/20 03:27:34;;;;;;;12.75;10.52;;;16.30;99.90;;;;;;5001397;28;20181;-80
2021/08/20 03:30:01;;;;;;;13.48;10.35;;;16.30;99.90;;;;;;5002216;28;20077;-82
2021/08/20 03:32:27;;;;;;;13.20;10.85;;;16.40;99.90;;;;;;5005770;28;20073;-82
2021/08/20 03:34:55;;;;;;;15.63;10.40;;;16.40;99.90;;;;;;5007927;28;20062;-81
2021/08/20 03:37:22;;;;;;;15.57;10.48;;;16.50;99.90;;;;;;5019278;28;20139;-81
2021/08/20 03:39:50;;;;;;;14.02;10.75;;;16.50;99.90;;;;;;5021284;28;20053;-82
2021/08/20 03:42:17;;;;;;;15.00;10.85;;;16.60;99.90;;;;;;5021300;28;20049;-80
2021/08/20 03:44:44;;;;;;;16.88;10.98;;;16.60;99.90;;;;;;5023426;28;20135;-82
2021/08/20 03:47:11;;;;;;;12.98;11.10;;;16.60;99.90;;;;;;5023539;28;20106;-81
2021/08/20 03:49:38;;;;;;;14.13;11.18;;;16.50;99.90;;;;;;5023992;28;20137;-79
2021/08/20 03:52:05;;;;;;;16.65;10.98;;;16.60;99.90;;;;;;5022526;28;20081;-82
2021/08/20 03:54:32;;;;;;;13.90;11.43;;;16.60;99.90;;;;;;5023261;28;20088;-81
2021/08/20 03:57:00;;;;;;;17.98;11.90;;;16.60;99.90;;;;;;5024081;28;20062;-81
2021/08/20 03:59:27;;;;;;;13.02;10.65;;;16.60;99.90;;;;;;5025580;28;20076;-83
2021/08/20 04:01:54;;;;;;;16.45;10.57;;;16.60;99.90;;;;;;5024254;28;20300;-83
2021/08/20 04:04:21;;;;;;;16.20;11.77;;;16.70;99.90;;;;;;5023697;28;20141;-82
2021/08/20 04:06:47;;;;;;;13.30;11.38;;;16.70;99.90;;;;;;5021437;28;20077;-84
2021/08/20 04:09:14;;;;;;;14.88;11.60;;;16.80;99.90;;;;;;5004613;28;20061;-83
2021/08/20 04:11:41;;;;;;;14.27;11.40;;;16.70;99.90;;;;;;5003530;28;20475;-84
2021/08/20 04:14:09;;;;;;;16.05;10.60;;;16.70;99.90;;;;;;5001916;28;20061;-82
2021/08/20 04:16:36;;;;;;;15.75;11.10;;;16.70;99.90;;;;;;5002688;28;20126;-82
2021/08/20 04:19:03;;;;;;;18.80;12.55;;;16.60;99.90;;;;;;5002412;28;20038;-81
2021/08/20 04:21:30;;;;;;;17.10;11.98;;;16.60;99.90;;;;;;5001583;28;20137;-82
2021/08/20 04:23:58;;;;;;;16.27;11.93;;;16.70;99.90;;;;;;5009492;28;20129;-82
2021/08/20 04:26:24;;;;;;;16.38;11.82;;;16.70;99.90;;;;;;5020773;28;20050;-82
2021/08/20 04:28:51;;;;;;;14.73;11.00;;;16.70;99.90;;;;;;5022223;28;20054;-82
2021/08/20 04:31:20;;;;;;;15.88;11.57;;;16.70;99.90;;;;;;5021106;28;20085;-80
2021/08/20 04:33:50;;;;;;;14.38;11.30;;;16.70;99.90;;;;;;5021103;28;20109;-81
2021/08/20 04:36:17;;;;;;;12.63;10.77;;;16.70;99.90;;;;;;5021520;28;20077;-82
2021/08/20 04:38:44;;;;;;;19.55;12.52;;;16.70;99.90;;;;;;5019569;28;20096;-82
2021/08/20 04:41:11;;;;;;;16.55;12.27;;;16.70;99.90;;;;;;5007966;28;20054;-83
2021/08/20 04:43:38;;;;;;;18.17;12.20;;;16.70;99.90;;;;;;5001301;28;20129;-81
2021/08/20 04:46:05;;;;;;;14.05;11.93;;;16.70;99.90;;;;;;5005236;28;20090;-80
2021/08/20 04:48:33;;;;;;;19.42;12.32;;;16.70;99.90;;;;;;5004028;28;20054;-80
2021/08/20 04:51:00;;;;;;;15.52;11.77;;;16.70;99.90;;;;;;5004304;28;20134;-78
2021/08/20 04:53:30;;;;;;;15.05;12.38;;;16.80;99.90;;;;;;5003286;28;20085;-82
2021/08/20 04:55:58;;;;;;;16.42;12.20;;;16.70;99.90;;;;;;5008178;28;20057;-83
2021/08/20 04:58:25;;;;;;;18.40;12.63;;;16.70;99.90;;;;;;5008645;28;20109;-84
2021/08/20 05:00:53;;;;;;;17.20;11.65;;;16.80;99.90;;;;;;5006510;28;20082;-85
2021/08/20 05:03:21;;;;;;;16.65;12.15;;;16.80;99.90;;;;;;5007388;28;20086;-80
2021/08/20 05:05:49;;;;;;;17.52;12.32;;;16.80;99.90;;;;;;5014251;28;20054;-82
2021/08/20 05:08:16;;;;;;;21.55;12.63;;;16.80;99.90;;;;;;5022160;28;20186;-82
2021/08/20 05:10:43;;;;;;;16.83;12.25;;;16.80;99.90;;;;;;5023474;28;20149;-82
2021/08/20 05:13:10;;;;;;;16.20;12.00;;;16.80;99.90;;;;;;5023942;28;20081;-82
2021/08/20 05:15:37;;;;;;;14.48;11.60;;;16.80;99.90;;;;;;5023779;28;20529;-82
2021/08/20 05:18:04;;;;;;;16.67;11.93;;;16.80;99.90;;;;;;5023401;28;20101;-81
2021/08/20 05:20:31;;;;;;;20.23;13.10;;;16.90;99.90;;;;;;5022066;28;20116;-81
2021/08/20 05:23:00;;;;;;;14.43;11.85;;;16.80;99.90;;;;;;5023977;28;20133;-81
2021/08/20 05:25:32;;;;;;;16.45;11.57;;;16.80;99.90;;;;;;5022575;28;20137;-79
2021/08/20 05:27:59;;;;;;;20.90;11.18;;;16.80;99.90;;;;;;5023913;28;20592;-82
2021/08/20 05:30:26;;;;;;;18.65;11.35;;;16.80;99.90;;;;;;5022553;28;20057;-79
2021/08/20 05:32:53;;;;;;;16.73;11.98;;;16.70;99.90;;;;;;5021787;28;20524;-82
2021/08/20 05:35:20;;;;;;;17.40;11.65;;;16.60;99.90;;;;;;5021268;28;20408;-82
2021/08/20 05:37:47;;;;;;;14.50;11.75;;;16.70;99.90;;;;;;5023642;28;20134;-81
2021/08/20 05:40:16;;;;;;;15.52;11.82;;;16.70;99.90;;;;;;5015812;28;20054;-80
2021/08/20 05:42:43;;;;;;;14.90;11.50;;;16.80;99.90;;;;;;5008379;28;20046;-81
2021/08/20 05:45:10;;;;;;;18.33;11.70;;;16.90;99.90;;;;;;5022578;28;20077;-81
2021/08/20 05:47:37;;;;;;;17.60;11.98;;;17.00;99.90;;;;;;5003786;28;20475;-81
2021/08/20 05:50:05;;;;;;;16.80;11.13;;;17.10;99.90;;;;;;5001028;28;20137;-79
2021/08/20 05:52:34;;;;;;;17.25;12.00;;;17.20;99.90;;;;;;4990740;28;20058;-82
2021/08/20 05:55:01;;;;;;;17.83;12.40;;;17.20;99.90;;;;;;4984438;28;20086;-82
2021/08/20 05:57:29;;;;;;;15.55;11.43;;;17.30;99.90;;;;;;5007555;28;20106;-82
2021/08/20 05:59:56;;;;;;;15.70;11.93;;;17.40;99.90;;;;;;5016062;28;20141;-81
2021/08/20 06:02:23;;;;;;;15.45;11.85;;;17.50;99.90;;;;;;5002647;28;20077;-81
2021/08/20 06:04:50;;;;;;;16.02;12.13;;;17.60;99.90;;;;;;5004874;28;20046;-82
2021/08/20 06:07:17;;;;;;;14.95;11.98;;;17.70;99.90;;;;;;5007223;28;20110;-84
2021/08/20 06:09:44;;;;;;;13.52;11.25;;;17.80;99.90;;;;;;5009854;28;20601;-85
2021/08/20 06:12:11;;;;;;;15.43;11.18;;;17.90;99.90;;;;;;5011390;28;20058;-83
2021/08/20 06:14:39;;;;;;;16.98;12.48;;;18.00;99.90;;;;;;5009913;28;20078;-85
2021/08/20 06:17:06;;;;;;;15.48;11.65;;;18.10;99.90;;;;;;5011521;28;20134;-83
2021/08/20 06:19:33;;;;;;;16.08;11.90;;;18.20;99.90;;;;;;5014847;28;20458;-82
2021/08/20 06:22:00;;;;;;;17.10;11.88;;;18.30;99.90;;;;;;5012835;28;20089;-84
2021/08/20 06:24:27;;;;;;;15.65;12.20;;;18.40;99.90;;;;;;5011318;28;20105;-83
2021/08/20 06:26:54;;;;;;;14.88;12.10;;;18.40;99.90;;;;;;5012151;28;20086;-85
2021/08/20 06:29:21;;;;;;;16.75;11.93;;;18.60;99.90;;;;;;5006568;28;20061;-84
2021/08/20 06:31:50;;;;;;;15.73;12.43;;;18.80;99.90;;;;;;5008274;28;20046;-85
2021/08/20 06:34:17;;;;;;;13.93;11.65;;;19.10;99.90;;;;;;5007456;28;20073;-83
2021/08/20 06:36:45;;;;;;;13.60;10.35;;;19.50;99.90;;;;;;5007876;28;20118;-84
2021/08/20 06:39:11;;;;;;;14.75;10.82;;;20.00;99.90;;;;;;5009023;28;20245;-83
2021/08/20 06:41:38;;;;;;;16.10;11.90;;;20.30;99.90;;;;;;5023466;28;20114;-83
2021/08/20 06:44:05;;;;;;;14.95;11.82;;;20.70;99.90;;;;;;5024281;28;20084;-80
2021/08/20 06:46:32;;;;;;;13.45;12.05;;;20.80;99.90;;;;;;5020186;28;20110;-83
2021/08/20 06:49:01;;;;;;;13.88;11.90;;;20.80;99.90;;;;;;5008814;28;20122;-82
2021/08/20 06:51:35;;;;;;;16.33;12.27;;;20.60;99.90;;;;;;5008956;28;20054;-84
2021/08/20 06:54:02;;;;;;;18.80;13.48;;;20.50;99.90;;;;;;5021444;28;20073;-84
2021/08/20 06:56:30;;;;;;;17.27;12.65;;;20.40;99.90;;;;;;5026412;28;20114;-81
2021/08/20 06:58:57;;;;;;;14.10;12.02;;;20.30;99.90;;;;;;5020971;28;20113;-85
2021/08/20 07:01:24;;;;;;;16.20;12.45;;;20.40;99.90;;;;;;5022076;28;20204;-82
2021/08/20 07:03:53;;;;;;;15.35;12.02;;;20.50;99.90;;;;;;5023896;28;20133;-83
2021/08/20 07:06:22;;;;;;;17.77;12.20;;;20.50;99.90;;;;;;5003620;28;20050;-84
2021/08/20 07:08:50;;;;;;;12.98;10.57;;;20.70;99.90;;;;;;5004196;28;20165;-84
2021/08/20 07:11:17;;;;;;;14.85;11.65;;;21.10;99.90;;;;;;5003390;28;20494;-86
2021/08/20 07:13:44;;;;;;;13.07;11.60;;;21.50;99.90;;;;;;5006942;28;20064;-85
2021/08/20 07:16:10;;;;;;;13.82;11.43;;;21.60;99.90;;;;;;5001648;28;20073;-86
2021/08/20 07:18:38;;;;;;;15.02;11.20;;;21.60;99.90;;;;;;5011704;28;20129;-82
2021/08/20 07:21:05;;;;;;;12.93;11.13;;;21.70;99.90;;;;;;5023442;28;20050;-83
2021/08/20 07:23:36;;;;;;;14.73;11.65;;;21.60;99.90;;;;;;5022254;28;20118;-83
2021/08/20 07:26:05;;;;;;;16.25;11.50;;;21.40;99.90;;;;;;5007863;28;20078;-84
2021/08/20 07:31:00;;;;;;;16.13;12.38;;;20.90;99.90;;;;;;4987430;28;20051;-74
2021/08/20 07:33:27;;;;;;;14.63;11.57;;;20.60;99.90;;;;;;4975631;28;20528;-75
2021/08/20 07:35:54;;;;;;;17.00;12.15;;;20.40;99.90;;;;;;4979925;28;20503;-75
2021/08/20 07:38:21;;;;;;;15.90;11.93;;;20.30;99.90;;;;;;4992710;28;20050;-76
2021/08/20 07:40:49;;;;;;;16.52;11.98;;;20.20;99.90;;;;;;4992924;28;20077;-76
2021/08/20 07:43:16;;;;;;;15.20;10.80;;;20.30;99.90;;;;;;4992694;28;20069;-77
2021/08/20 07:45:43;;;;;;;13.25;10.23;;;20.40;99.90;;;;;;4990331;28;20042;-75
2021/08/20 07:48:12;;;;;;;16.30;11.32;;;20.50;99.90;;;;;;4972966;28;20154;-77
2021/08/20 07:50:40;;;;;;;17.88;11.60;;;20.70;99.90;;;;;;4987117;28;20137;-75
2021/08/20 07:53:07;;;;;;;13.02;10.05;;;20.80;99.90;;;;;;4973299;28;20097;-76
2021/08/20 07:55:34;;;;;;;16.30;10.90;;;20.80;99.90;;;;;;4972638;28;20525;-75
2021/08/20 07:58:02;;;;;;;12.93;10.63;;;20.80;99.90;;;;;;4972734;28;20047;-76
2021/08/20 08:00:31;;;;;;;13.35;10.73;;;20.90;99.90;;;;;;4972819;28;20050;-75
2021/08/20 08:02:59;;;;;;;12.38;10.07;;;21.00;99.90;;;;;;4981424;28;20055;-76
2021/08/20 08:05:26;;;;;;;12.57;10.35;;;21.20;99.90;;;;;;4978951;28;20096;-76
2021/08/20 08:07:55;;;;;;;17.38;11.98;;;21.50;99.90;;;;;;4991825;28;20126;-76
2021/08/20 08:10:22;;;;;;;17.80;12.10;;;21.50;99.90;;;;;;4991895;28;20110;-76
2021/08/20 08:12:49;;;;;;;12.35;10.32;;;21.50;99.90;;;;;;4991963;28;20081;-77
2021/08/20 08:15:18;;;;;;;12.85;9.73;;;21.40;99.90;;;;;;4986790;28;20125;-76
2021/08/20 08:17:45;;;;;;;11.50;8.50;;;21.30;99.90;;;;;;4978079;28;20054;-75
2021/08/20 08:20:14;;;;;;;12.60;9.10;;;21.30;99.90;;;;;;4972818;28;20148;-76
2021/08/20 08:22:41;;;;;;;10.38;8.15;;;21.20;99.90;;;;;;4991734;28;20481;-76
2021/08/20 08:25:09;;;;;;;12.38;8.50;;;21.20;99.90;;;;;;4991079;28;20129;-76
2021/08/20 08:27:50;;;;;;;12.68;8.85;;;21.20;99.90;;;;;;4990000;28;20046;-79
2021/08/20 08:30:19;;;;;;;9.65;8.32;;;21.60;99.90;;;;;;4989912;28;20050;-76
2021/08/20 08:32:46;;;;;;;16.40;8.70;;;22.20;99.90;;;;;;4982157;28;20047;-76
2021/08/20 08:35:13;;;;;;;13.07;8.48;;;22.50;99.90;;;;;;4984035;28;20428;-77
2021/08/20 08:37:40;;;;;;;11.48;8.75;;;22.70;99.90;;;;;;4972641;28;20053;-78
2021/08/20 08:40:08;;;;;;;11.32;9.65;;;22.70;99.90;;;;;;4972823;28;20150;-75
2021/08/20 08:42:36;;;;;;;9.35;8.07;;;22.60;99.90;;;;;;4972082;28;20646;-75
2021/08/20 08:45:04;;;;;;;11.13;8.68;;;22.60;99.90;;;;;;4972377;28;20056;-75
2021/08/20 08:47:35;;;;;;;11.23;8.18;;;22.50;99.90;;;;;;4972661;28;20054;-76
2021/08/20 08:50:07;;;;;;;15.25;9.15;;;22.40;99.90;;;;;;4972617;28;20046;-77
2021/08/20 08:52:34;;;;;;;;;;;22.40;99.90;;;;;;4973057;28;20082;-77
2021/08/20 08:55:03;;;;;;;11.40;8.93;;;22.30;99.90;;;;;;4972398;28;19930;-76
2021/08/20 08:57:30;;;;;;;11.38;8.88;;;22.10;99.90;;;;;;4972375;28;20133;-78
2021/08/20 08:59:57;;;;;;;12.32;9.07;;;21.90;99.90;;;;;;4972822;28;20057;-76
2021/08/20 09:02:25;;;;;;;10.20;7.78;;;21.70;99.90;;;;;;4972696;28;20505;-76
2021/08/20 09:04:58;;;;;;;11.57;8.15;;;21.40;99.90;;;;;;4972222;28;20629;-75
2021/08/20 09:07:34;;;;;;;11.18;7.90;;;21.20;99.90;;;;;;4982184;23;20046;-76
2021/08/20 09:10:16;;;;;;;11.55;7.90;;;21.00;99.90;;;;;;4983467;28;20054;-76
2021/08/20 09:12:51;;;;;;;11.38;6.53;;;20.90;99.90;;;;;;4991843;28;20138;-77
2021/08/20 09:15:19;;;;;;;8.88;5.75;;;20.70;99.90;;;;;;4991432;28;20078;-76
2021/08/20 09:17:48;;;;;;;8.35;5.90;;;20.40;99.90;;;;;;4991786;28;20078;-76
2021/08/20 09:20:21;;;;;;;8.30;5.50;;;20.30;99.90;;;;;;4991962;28;20111;-76
2021/08/20 09:22:49;;;;;;;8.65;6.40;;;20.10;99.90;;;;;;5002252;23;20114;-82
2021/08/20 09:25:37;;;;;;;8.25;5.85;;;20.10;99.90;;;;;;4989359;28;20082;-85
2021/08/20 09:28:18;;;;;;;6.65;4.65;;;20.30;99.90;;;;;;4983189;28;20099;-86
2021/08/20 09:30:58;;;;;;;5.63;4.43;;;20.50;99.90;;;;;;4985110;28;20107;-83
2021/08/20 09:33:27;;;;;;;7.50;4.80;;;20.70;99.90;;;;;;4985224;28;20101;-83
2021/08/20 09:36:11;;;;;;;6.80;4.32;;;20.90;99.90;;;;;;4989843;28;20078;-84
2021/08/20 09:38:40;;;;;;;5.90;4.05;;;20.90;99.90;;;;;;4987449;28;20074;-83
2021/08/20 09:41:10;;;;;;;6.35;4.00;;;21.10;99.90;;;;;;4985674;28;20057;-82
2021/08/20 09:43:39;;;;;;;6.53;4.20;;;21.30;99.90;;;;;;4983417;28;20069;-83
2021/08/20 09:46:11;;;;;;;4.55;3.92;;;21.10;99.90;;;;;;4984604;28;20422;-83
2021/08/20 09:48:48;;;;;;;6.00;4.03;;;21.10;99.90;;;;;;4984779;28;20074;-84
2021/08/20 09:51:40;;;;;;;3.40;3.03;;;21.30;99.90;;;;;;4985777;28;20599;-84
2021/08/20 09:54:08;;;;;;;3.20;2.33;;;21.40;99.90;;;;;;4985335;28;20061;-84
2021/08/20 09:56:37;;;;;;;2.55;2.00;;;21.70;99.90;;;;;;4984694;28;20078;-84
2021/08/20 09:59:07;;;;;;;2.33;2.08;;;21.80;99.90;;;;;;4982927;28;20047;-83
2021/08/20 10:01:35;;;;;;;2.58;1.80;;;22.10;99.90;;;;;;4982407;28;20114;-82
2021/08/20 10:04:04;;;;;;;1.88;1.75;;;22.30;99.90;;;;;;4987342;28;20110;-82
2021/08/20 10:06:33;;;;;;;3.60;2.90;;;22.40;99.90;;;;;;4985848;28;20062;-83
2021/08/20 10:09:06;;;;;;;3.47;2.35;;;22.30;99.90;;;;;;4986255;28;20130;-84
2021/08/20 10:11:35;;;;;;;2.53;2.08;;;22.30;99.90;;;;;;4985809;28;20165;-82
2021/08/20 10:14:04;;;;;;;2.75;2.08;;;22.20;99.90;;;;;;4988719;28;20061;-83
2021/08/20 10:16:35;;;;;;;2.72;2.42;;;22.10;99.90;;;;;;4985061;28;20243;-82
2021/08/20 10:19:03;;;;;;;3.80;3.10;;;22.20;99.90;;;;;;4985153;28;20082;-83
2021/08/20 10:21:32;;;;;;;2.95;2.75;;;22.30;99.90;;;;;;4985097;28;20098;-83
2021/08/20 10:24:00;;;;;;;3.17;2.78;;;22.60;99.90;;;;;;4985977;28;20085;-81
2021/08/20 10:26:30;;;;;;;4.72;2.72;;;22.80;99.90;;;;;;4985601;28;20051;-83
2021/08/20 10:28:58;;;;;;;2.72;2.53;;;23.00;99.90;;;;;;4985400;28;20130;-85
2021/08/20 10:31:25;;;;;;;4.40;2.75;;;23.20;99.90;;;;;;4985031;28;20070;-82
2021/08/20 10:33:53;;;;;;;2.88;2.65;;;23.40;99.90;;;;;;4985894;28;20042;-83
2021/08/20 10:36:36;;;;;;;3.05;2.75;;;23.60;99.90;;;;;;4984587;28;20118;-82
2021/08/20 10:39:03;;;;;;;3.10;2.90;;;23.80;99.90;;;;;;4984980;28;20069;-82
2021/08/20 10:41:31;;;;;;;4.22;3.30;;;23.80;99.90;;;;;;4984085;28;20058;-84
2021/08/20 10:44:03;;;;;;;4.53;3.20;;;23.90;99.90;;;;;;4984798;28;20114;-83
2021/08/20 10:47:09;;;;;;;3.25;2.85;;;24.20;99.90;;;;;;4985277;28;20061;-84
2021/08/20 10:49:38;;;;;;;3.53;2.90;;;24.60;99.90;;;;;;4985050;28;20558;-83
2021/08/20 10:52:05;;;;;;;2.72;2.53;;;24.60;99.90;;;;;;4985357;28;20539;-84
2021/08/20 10:55:09;;;;;;;3.53;2.50;;;24.40;99.90;;;;;;4984660;28;20123;-82
2021/08/20 10:58:06;;;;;;;4.68;3.40;;;24.20;99.90;;;;;;4974439;28;20054;-82
2021/08/20 11:00:35;;;;;;;4.93;3.60;;;23.90;99.90;;;;;;4983918;28;20085;-82
2021/08/20 11:03:04;;;;;;;4.78;3.45;;;23.90;99.90;;;;;;4983502;28;20118;-82
2021/08/20 11:05:38;;;;;;;3.65;3.35;;;23.70;99.90;;;;;;4983029;28;20062;-81
2021/08/20 11:08:35;;;;;;;5.53;3.30;;;23.60;99.90;;;;;;4982621;28;20110;-82
2021/08/20 11:11:03;;;;;;;5.63;3.50;;;23.50;99.90;;;;;;4987508;28;20051;-80
2021/08/20 11:13:31;;;;;;;4.78;3.33;;;23.30;99.90;;;;;;4984625;28;20118;-82
2021/08/20 11:15:59;;;;;;;4.10;3.35;;;23.10;99.90;;;;;;4983869;28;20490;-81
2021/08/20 11:18:45;;;;;;;5.53;3.60;;;23.10;99.90;;;;;;4982415;28;20079;-83
2021/08/20 11:21:44;;;;;;;3.90;3.47;;;23.10;99.90;;;;;;4983270;28;20136;-83
2021/08/20 11:24:17;;;;;;;4.78;3.30;;;23.10;99.90;;;;;;4983374;28;20054;-79
2021/08/20 11:26:44;;;;;;;;;;;23.40;99.90;;;;;;4984001;28;20070;-83
2021/08/20 11:29:14;;;;;;;5.13;3.22;;;23.60;99.90;;;;;;4984846;28;19926;-82
2021/08/20 11:31:42;;;;;;;4.60;3.70;;;23.60;99.90;;;;;;4987102;28;20114;-82
2021/08/20 11:34:09;;;;;;;5.15;3.38;;;23.60;99.90;;;;;;4982246;28;20046;-84
2021/08/20 11:36:42;;;;;;;3.95;3.55;;;23.70;99.90;;;;;;4982598;28;20419;-84
2021/08/20 11:39:12;;;;;;;4.43;3.60;;;23.50;99.90;;;;;;4983399;28;20050;-83
2021/08/20 11:41:43;;;;;;;4.28;3.55;;;23.40;99.90;;;;;;4983526;28;20138;-84
2021/08/20 11:44:13;;;;;;;3.42;2.80;;;23.40;99.90;;;;;;4984003;28;20055;-82
2021/08/20 11:46:41;;;;;;;3.72;3.20;;;23.60;99.90;;;;;;4983632;28;20125;-82
2021/08/20 11:49:09;;;;;;;3.50;3.10;;;23.70;99.90;;;;;;4983431;28;20106;-82
2021/08/20 11:51:39;;;;;;;5.70;3.78;;;23.60;99.90;;;;;;4983042;28;20057;-82
2021/08/20 11:54:07;;;;;;;4.53;3.75;;;23.50;99.90;;;;;;4982490;28;20079;-83
2021/08/20 11:56:34;;;;;;;5.35;3.80;;;23.30;99.90;;;;;;4982846;28;20047;-83
2021/08/20 11:59:09;;;;;;;3.78;3.35;;;23.20;99.90;;;;;;4982417;28;20106;-82
2021/08/20 12:01:40;;;;;;;4.03;3.63;;;23.20;99.90;;;;;;4983262;28;20062;-84
2021/08/20 12:04:08;;;;;;;4.90;3.75;;;23.10;99.90;;;;;;4984478;28;20073;-80
2021/08/20 12:06:36;;;;;;;5.22;3.50;;;23.10;99.90;;;;;;4986581;28;20137;-82
2021/08/20 12:09:10;;;;;;;6.78;3.63;;;23.30;99.90;;;;;;4982693;28;20054;-83
2021/08/20 12:11:38;;;;;;;3.92;3.53;;;23.40;99.90;;;;;;4982739;28;20058;-84
2021/08/20 12:14:05;;;;;;;5.18;3.50;;;23.70;99.90;;;;;;4983889;28;20077;-80
2021/08/20 12:16:34;;;;;;;3.60;3.30;;;23.90;99.90;;;;;;4982540;28;20129;-83
2021/08/20 12:19:13;;;;;;;4.82;3.60;;;24.20;99.90;;;;;;4982876;28;20103;-84
2021/08/20 12:21:39;;;;;;;6.30;3.72;;;24.30;99.90;;;;;;4982423;28;20066;-85
2021/08/20 12:24:07;;;;;;;3.72;3.33;;;24.50;99.90;;;;;;4983375;28;20129;-83
2021/08/20 12:26:34;;;;;;;4.63;3.50;;;24.60;99.90;;;;;;4983086;28;20078;-84
2021/08/20 12:29:13;;;;;;;6.45;3.80;;;24.70;99.90;;;;;;4983850;28;20043;-83
2021/08/20 12:31:40;;;;;;;3.28;2.90;;;24.70;99.90;;;;;;4982826;28;20055;-84
2021/08/20 12:34:07;;;;;;;4.45;3.47;;;24.90;99.90;;;;;;4983062;28;20508;-82
2021/08/20 12:36:36;;;;;;;3.85;3.30;;;25.10;99.90;;;;;;4986276;28;20501;-84
2021/08/20 12:39:13;;;;;;;3.90;3.45;;;25.20;99.90;;;;;;4984818;28;20050;-83
2021/08/20 12:41:40;;;;;;;4.40;3.70;;;25.20;99.90;;;;;;4984656;28;20110;-83
2021/08/20 12:44:08;;;;;;;4.07;3.67;;;25.30;99.90;;;;;;4986828;28;20107;-82
2021/08/20 12:46:36;;;;;;;6.05;3.63;;;25.40;99.90;;;;;;4989946;28;20102;-84
2021/08/20 12:49:06;;;;;;;4.18;3.10;;;25.60;99.90;;;;;;4991157;28;20081;-83
2021/08/20 12:51:35;;;;;;;7.45;3.22;;;25.60;99.90;;;;;;4991913;28;20076;-83
2021/08/20 12:54:06;;;;;;;4.35;3.20;;;25.60;99.90;;;;;;4987942;28;20081;-84
2021/08/20 12:56:37;;;;;;;5.53;3.30;;;25.60;99.90;;;;;;4985952;28;20150;-83
2021/08/20 12:59:06;;;;;;;4.43;3.05;;;25.50;99.90;;;;;;4984872;28;20083;-84
2021/08/20 13:01:33;;;;;;;2.97;2.70;;;25.60;99.90;;;;;;4982721;28;20134;-83
2021/08/20 13:04:00;;;;;;;5.13;2.88;;;25.30;99.90;;;;;;4982548;28;20090;-85
2021/08/20 13:06:27;;;;;;;3.65;2.78;;;24.90;99.90;;;;;;4986659;28;20134;-85
2021/08/20 13:08:55;;;;;;;3.40;2.90;;;24.60;99.90;;;;;;4988731;28;20514;-85
2021/08/20 13:11:22;;;;;;;4.07;3.00;;;24.30;99.90;;;;;;4986581;28;20141;-85
2021/08/20 13:13:49;;;;;;;3.67;3.30;;;24.20;99.90;;;;;;4986635;28;20566;-85